Time;durP1;ratioP1;P1;durP2;ratioP2;P2;SDS_P1;SDS_P2;PMS_P1;PMS_P2;Temp;Humidity;BMP_temperature;BMP_pressure;BME280_temperature;BME280_humidity;BME280_pressure;Samples;Min_cycle;Max_cycle;Signal;HPM_P1;HPM_P2
2022/06/09 00:00:53;;;;;;;3.07;0.80;;;;;;;;;;4884872;29;20222;-92
2022/06/09 00:03:25;;;;;;;1.20;0.90;;;;;;;;;;4881415;29;20219;-91
2022/06/09 00:05:54;;;;;;;0.43;0.43;;;;;;;;;;4877777;29;20299;-92
2022/06/09 00:08:22;;;;;;;0.53;0.53;;;;;;;;;;4902140;29;20206;-92
2022/06/09 00:10:54;;;;;;;0.50;0.50;;;;;;;;;;4919728;29;20238;-92
2022/06/09 00:13:23;;;;;;;0.80;0.80;;;;;;;;;;4930607;29;20295;-91
2022/06/09 00:15:51;;;;;;;0.40;0.40;;;;;;;;;;4889862;29;20225;-93
2022/06/09 00:18:21;;;;;;;2.03;1.13;;;;;;;;;;4902768;29;20217;-93
2022/06/09 00:20:51;;;;;;;0.40;0.40;;;;;;;;;;4902779;29;20239;-92
2022/06/09 00:23:20;;;;;;;1.10;1.10;;;;;;;;;;4887426;29;20224;-92
2022/06/09 00:25:49;;;;;;;0.70;0.70;;;;;;;;;;4895893;29;20223;-90
2022/06/09 00:28:18;;;;;;;1.10;1.00;;;;;;;;;;4917510;29;20292;-92
2022/06/09 00:30:47;;;;;;;2.00;1.03;;;;;;;;;;4896006;29;20281;-90
2022/06/09 00:33:15;;;;;;;0.40;0.40;;;;;;;;;;4915316;29;20301;-92
2022/06/09 00:35:44;;;;;;;2.47;1.17;;;;;;;;;;4902578;29;20214;-92
2022/06/09 00:38:14;;;;;;;0.47;0.47;;;;;;;;;;4926022;29;20301;-91
2022/06/09 00:40:42;;;;;;;0.50;0.50;;;;;;;;;;4885029;29;20225;-92
2022/06/09 00:43:11;;;;;;;2.43;1.20;;;;;;;;;;4894887;29;20234;-91
2022/06/09 00:45:42;;;;;;;1.10;1.10;;;;;;;;;;4880659;29;20225;-90
2022/06/09 00:48:21;;;;;;;0.87;0.70;;;;;;;;;;4906514;29;20210;-92
2022/06/09 00:50:52;;;;;;;1.07;0.80;;;;;;;;;;4902033;29;20210;-92
2022/06/09 00:53:23;;;;;;;0.50;0.50;;;;;;;;;;4902476;29;20226;-92
2022/06/09 00:55:53;;;;;;;5.07;1.13;;;;;;;;;;4933746;29;20309;-91
2022/06/09 00:58:22;;;;;;;0.40;0.40;;;;;;;;;;4884017;29;20208;-92
2022/06/09 01:00:53;;;;;;;0.70;0.70;;;;;;;;;;4900705;29;20204;-92
2022/06/09 01:03:23;;;;;;;1.03;1.00;;;;;;;;;;4899974;29;20282;-92
2022/06/09 01:05:53;;;;;;;0.93;0.93;;;;;;;;;;4883632;29;20218;-91
2022/06/09 01:08:29;;;;;;;2.37;1.60;;;;;;;;;;4912114;29;20269;-92
2022/06/09 01:10:58;;;;;;;2.23;0.90;;;;;;;;;;4883237;29;20238;-92
2022/06/09 01:13:26;;;;;;;0.50;0.50;;;;;;;;;;4911961;29;20200;-92
2022/06/09 01:16:00;;;;;;;1.43;1.17;;;;;;;;;;4904820;29;20199;-93
2022/06/09 01:18:32;;;;;;;2.07;1.40;;;;;;;;;;4932827;29;20202;-91
2022/06/09 01:21:04;;;;;;;2.20;1.67;;;;;;;;;;4882837;29;20217;-92
2022/06/09 01:23:51;;;;;;;2.83;1.40;;;;;;;;;;4913972;29;20241;-90
2022/06/09 01:26:46;;;;;;;0.70;0.70;;;;;;;;;;4922632;29;20206;-92
2022/06/09 01:29:24;;;;;;;3.53;1.83;;;;;;;;;;4863581;29;20229;-91
2022/06/09 01:31:59;;;;;;;3.67;0.97;;;;;;;;;;4895143;29;20222;-92
2022/06/09 01:34:33;;;;;;;1.50;1.40;;;;;;;;;;4898288;29;20211;-92
2022/06/09 01:37:03;;;;;;;1.80;0.80;;;;;;;;;;4899364;29;20297;-92
2022/06/09 01:39:46;;;;;;;2.33;1.30;;;;;;;;;;4911759;29;20211;-91
2022/06/09 01:42:23;;;;;;;1.20;0.97;;;;;;;;;;4914109;29;20227;-89
2022/06/09 01:44:52;;;;;;;1.77;1.20;;;;;;;;;;4882487;29;20240;-90
2022/06/09 01:47:24;;;;;;;3.40;2.60;;;;;;;;;;4898213;29;20261;-93
2022/06/09 01:49:54;;;;;;;4.37;2.07;;;;;;;;;;4882486;29;20305;-91
2022/06/09 01:52:23;;;;;;;4.03;0.87;;;;;;;;;;4882756;29;20202;-92
2022/06/09 01:54:52;;;;;;;0.40;0.40;;;;;;;;;;4887669;29;20242;-92
2022/06/09 01:57:24;;;;;;;2.13;1.43;;;;;;;;;;4905418;29;20245;-92
2022/06/09 01:59:55;;;;;;;2.87;1.77;;;;;;;;;;4887025;29;20205;-91
2022/06/09 02:02:27;;;;;;;1.67;0.90;;;;;;;;;;4886991;29;20230;-92
2022/06/09 02:04:58;;;;;;;2.83;2.10;;;;;;;;;;4881548;29;20218;-91
2022/06/09 02:07:28;;;;;;;1.53;1.37;;;;;;;;;;4892954;29;20299;-92
2022/06/09 02:09:56;;;;;;;1.67;1.57;;;;;;;;;;4912945;29;20221;-92
2022/06/09 02:12:26;;;;;;;1.40;1.17;;;;;;;;;;4882237;29;20263;-92
2022/06/09 02:14:57;;;;;;;3.80;1.90;;;;;;;;;;4926980;29;20202;-91
2022/06/09 02:17:27;;;;;;;2.13;1.03;;;;;;;;;;4910572;29;20221;-91
2022/06/09 02:19:56;;;;;;;2.37;1.90;;;;;;;;;;4893766;29;20255;-92
2022/06/09 02:22:24;;;;;;;4.10;1.97;;;;;;;;;;4883027;29;20211;-91
2022/06/09 02:24:53;;;;;;;4.13;1.97;;;;;;;;;;4892615;29;20222;-91
2022/06/09 02:27:21;;;;;;;0.83;0.83;;;;;;;;;;4900138;29;20256;-92
2022/06/09 02:29:50;;;;;;;2.33;1.80;;;;;;;;;;4882225;29;20205;-91
2022/06/09 02:32:19;;;;;;;1.47;1.23;;;;;;;;;;4897563;29;20286;-92
2022/06/09 02:34:49;;;;;;;2.17;0.90;;;;;;;;;;4881674;29;20206;-91
2022/06/09 02:37:17;;;;;;;5.23;2.90;;;;;;;;;;4898632;29;20269;-91
2022/06/09 02:39:45;;;;;;;5.67;2.63;;;;;;;;;;4909441;29;20215;-92
2022/06/09 02:42:14;;;;;;;2.40;1.20;;;;;;;;;;4897569;29;20206;-93
2022/06/09 02:44:42;;;;;;;1.83;1.50;;;;;;;;;;4885613;29;20237;-92
2022/06/09 02:47:11;;;;;;;3.23;1.70;;;;;;;;;;4913814;29;20213;-91
2022/06/09 02:49:41;;;;;;;5.17;2.93;;;;;;;;;;4923605;29;20291;-92
2022/06/09 02:52:11;;;;;;;6.57;2.40;;;;;;;;;;4910402;29;20213;-92
2022/06/09 02:54:40;;;;;;;14.90;1.80;;;;;;;;;;4929983;29;20236;-92
2022/06/09 02:57:08;;;;;;;4.40;1.70;;;;;;;;;;4907699;29;20297;-92
2022/06/09 02:59:36;;;;;;;1.27;1.00;;;;;;;;;;4930495;29;20276;-92
2022/06/09 03:02:05;;;;;;;5.33;2.03;;;;;;;;;;4896336;29;20220;-91
2022/06/09 03:04:34;;;;;;;7.83;1.93;;;;;;;;;;4931656;29;20236;-91
2022/06/09 03:07:02;;;;;;;1.20;1.20;;;;;;;;;;4894887;29;20206;-92
2022/06/09 03:09:32;;;;;;;1.80;1.27;;;;;;;;;;4917747;29;20298;-92
2022/06/09 03:12:00;;;;;;;5.30;2.20;;;;;;;;;;4916525;29;20288;-92
2022/06/09 03:14:29;;;;;;;4.30;1.20;;;;;;;;;;4902015;29;20273;-92
2022/06/09 03:16:58;;;;;;;2.53;1.20;;;;;;;;;;4912897;29;20202;-93
2022/06/09 03:19:26;;;;;;;1.20;0.90;;;;;;;;;;4900708;29;20218;-90
2022/06/09 03:21:55;;;;;;;4.63;2.00;;;;;;;;;;4885199;29;20210;-92
2022/06/09 03:24:23;;;;;;;2.40;2.00;;;;;;;;;;4900973;29;20222;-90
2022/06/09 03:26:53;;;;;;;2.93;1.47;;;;;;;;;;4901871;29;20221;-92
2022/06/09 03:29:22;;;;;;;1.30;1.23;;;;;;;;;;4900672;29;20218;-92
2022/06/09 03:31:51;;;;;;;0.70;0.70;;;;;;;;;;4904945;29;20299;-92
2022/06/09 03:34:19;;;;;;;1.60;1.50;;;;;;;;;;4903857;29;20233;-92
2022/06/09 03:36:48;;;;;;;2.40;1.50;;;;;;;;;;4921919;29;20225;-92
2022/06/09 03:39:16;;;;;;;1.00;0.90;;;;;;;;;;4919771;29;20212;-90
2022/06/09 03:41:45;;;;;;;5.30;2.10;;;;;;;;;;4906005;29;20211;-91
2022/06/09 03:44:15;;;;;;;1.30;1.07;;;;;;;;;;4903702;29;20228;-92
2022/06/09 03:46:43;;;;;;;0.83;0.80;;;;;;;;;;4921794;29;20246;-91
2022/06/09 03:49:12;;;;;;;4.77;2.17;;;;;;;;;;4884872;29;20309;-92
2022/06/09 03:51:40;;;;;;;0.40;0.40;;;;;;;;;;4900238;29;20274;-92
2022/06/09 03:54:09;;;;;;;1.70;1.30;;;;;;;;;;4901468;29;20209;-92
2022/06/09 03:56:37;;;;;;;4.33;1.43;;;;;;;;;;4915736;29;20221;-92
2022/06/09 03:59:05;;;;;;;3.03;1.03;;;;;;;;;;4914693;29;20218;-91
2022/06/09 04:01:35;;;;;;;0.60;0.60;;;;;;;;;;4884735;29;20210;-92
2022/06/09 04:04:04;;;;;;;1.50;1.40;;;;;;;;;;4900122;29;20231;-92
2022/06/09 04:06:33;;;;;;;1.70;1.10;;;;;;;;;;4901504;29;20198;-91
2022/06/09 04:09:02;;;;;;;0.50;0.50;;;;;;;;;;4885150;29;20254;-90
2022/06/09 04:11:32;;;;;;;1.87;1.33;;;;;;;;;;4893311;29;20254;-90
2022/06/09 04:14:00;;;;;;;8.50;1.43;;;;;;;;;;4878263;29;20205;-91
2022/06/09 04:16:30;;;;;;;1.97;0.80;;;;;;;;;;4902653;29;20225;-91
2022/06/09 04:19:03;;;;;;;0.40;0.40;;;;;;;;;;4884194;29;20227;-91
2022/06/09 04:21:33;;;;;;;0.40;0.40;;;;;;;;;;4915169;29;20215;-91
2022/06/09 04:24:01;;;;;;;2.93;0.60;;;;;;;;;;4883908;29;20322;-91
2022/06/09 04:26:32;;;;;;;1.50;1.40;;;;;;;;;;4887949;29;20202;-91
2022/06/09 04:29:01;;;;;;;0.50;0.50;;;;;;;;;;4902825;29;20247;-89
2022/06/09 04:31:29;;;;;;;0.60;0.60;;;;;;;;;;4930435;29;20233;-90
2022/06/09 04:33:59;;;;;;;2.00;1.80;;;;;;;;;;4915045;29;20221;-91
2022/06/09 04:36:28;;;;;;;0.50;0.50;;;;;;;;;;4886373;29;20238;-91
2022/06/09 04:39:01;;;;;;;1.43;1.20;;;;;;;;;;4918169;29;20210;-91
2022/06/09 04:41:29;;;;;;;0.93;0.93;;;;;;;;;;4916361;29;20235;-90
2022/06/09 04:43:58;;;;;;;0.60;0.60;;;;;;;;;;4899075;29;20227;-91
2022/06/09 04:46:27;;;;;;;3.23;1.07;;;;;;;;;;4899414;29;20211;-90
2022/06/09 04:48:56;;;;;;;0.50;0.50;;;;;;;;;;4902688;29;20235;-91
2022/06/09 04:51:26;;;;;;;1.27;1.20;;;;;;;;;;4886294;29;20212;-91
2022/06/09 04:53:55;;;;;;;4.63;1.10;;;;;;;;;;4883567;29;20211;-90
2022/06/09 04:56:23;;;;;;;0.80;0.80;;;;;;;;;;4899828;29;20206;-91
2022/06/09 04:58:52;;;;;;;1.37;1.27;;;;;;;;;;4912256;29;20199;-90
2022/06/09 05:01:21;;;;;;;1.90;1.37;;;;;;;;;;4922001;29;20213;-91
2022/06/09 05:03:51;;;;;;;1.53;1.10;;;;;;;;;;4917959;29;20202;-89
2022/06/09 05:06:23;;;;;;;0.40;0.40;;;;;;;;;;4911434;29;20207;-90
2022/06/09 05:08:54;;;;;;;0.50;0.50;;;;;;;;;;4895899;29;20212;-91
2022/06/09 05:11:23;;;;;;;0.67;0.67;;;;;;;;;;4883012;29;20232;-90
2022/06/09 05:13:52;;;;;;;3.50;1.83;;;;;;;;;;4883193;29;20250;-91
2022/06/09 05:16:21;;;;;;;1.87;1.30;;;;;;;;;;4896023;29;20274;-91
2022/06/09 05:18:50;;;;;;;0.67;0.67;;;;;;;;;;4898423;29;20214;-91
2022/06/09 05:21:18;;;;;;;2.63;1.40;;;;;;;;;;4882916;29;20219;-90
2022/06/09 05:23:47;;;;;;;1.70;1.30;;;;;;;;;;4899902;29;20215;-90
2022/06/09 05:26:17;;;;;;;0.93;0.80;;;;;;;;;;4899556;29;20238;-91
2022/06/09 05:28:46;;;;;;;3.63;1.03;;;;;;;;;;4898705;29;20198;-86
2022/06/09 05:31:15;;;;;;;4.43;2.40;;;;;;;;;;4883508;29;20262;-89
2022/06/09 05:33:44;;;;;;;1.83;1.47;;;;;;;;;;4879680;29;20204;-88
2022/06/09 05:36:12;;;;;;;0.40;0.40;;;;;;;;;;4909326;29;20283;-89
2022/06/09 05:47:05;;;;;;;3.90;1.20;;;;;;;;;;4901081;29;20206;-92
2022/06/09 05:49:34;;;;;;;1.87;1.23;;;;;;;;;;4883194;29;20207;-87
2022/06/09 05:52:02;;;;;;;1.33;1.13;;;;;;;;;;4883264;29;20306;-91
2022/06/09 05:54:31;;;;;;;1.63;1.53;;;;;;;;;;4893544;29;20199;-91
2022/06/09 05:57:01;;;;;;;0.80;0.80;;;;;;;;;;4913305;29;20203;-92
2022/06/09 05:59:29;;;;;;;1.10;1.00;;;;;;;;;;4870878;29;20207;-90
2022/06/09 06:01:58;;;;;;;3.43;1.37;;;;;;;;;;4882743;29;20211;-87
2022/06/09 06:04:27;;;;;;;3.60;2.57;;;;;;;;;;4913614;29;20218;-89
2022/06/09 06:06:55;;;;;;;1.90;1.13;;;;;;;;;;4893058;29;20207;-89
2022/06/09 06:09:24;;;;;;;2.33;1.07;;;;;;;;;;4913878;29;20207;-88
2022/06/09 06:11:52;;;;;;;4.50;1.33;;;;;;;;;;4882360;29;20242;-88
2022/06/09 06:14:23;;;;;;;5.37;1.97;;;;;;;;;;4882011;29;20204;-88
2022/06/09 06:16:52;;;;;;;1.50;0.97;;;;;;;;;;4881872;29;20279;-88
2022/06/09 06:19:22;;;;;;;0.80;0.80;;;;;;;;;;4897498;29;20309;-89
2022/06/09 06:21:51;;;;;;;2.97;1.47;;;;;;;;;;4912802;29;20294;-88
2022/06/09 06:24:21;;;;;;;1.77;1.67;;;;;;;;;;4912222;29;20207;-87
2022/06/09 06:26:52;;;;;;;2.07;1.00;;;;;;;;;;4932208;29;20276;-88
2022/06/09 06:29:22;;;;;;;2.37;1.40;;;;;;;;;;4884447;29;20208;-88
2022/06/09 06:31:53;;;;;;;2.80;1.23;;;;;;;;;;4900724;29;20311;-88
2022/06/09 06:34:22;;;;;;;2.73;1.87;;;;;;;;;;4913309;29;20241;-87
2022/06/09 06:36:51;;;;;;;1.63;1.17;;;;;;;;;;4900457;29;20206;-88
2022/06/09 06:39:19;;;;;;;5.53;1.40;;;;;;;;;;4916294;29;20213;-87
2022/06/09 06:41:51;;;;;;;3.77;1.50;;;;;;;;;;4898354;29;20302;-88
2022/06/09 06:44:20;;;;;;;2.87;1.93;;;;;;;;;;4913012;29;20222;-88
2022/06/09 06:46:55;;;;;;;2.77;2.17;;;;;;;;;;4877099;29;20235;-87
2022/06/09 06:49:24;;;;;;;1.27;1.17;;;;;;;;;;4880672;29;20297;-84
2022/06/09 06:51:53;;;;;;;3.97;1.97;;;;;;;;;;4879743;29;20239;-84
2022/06/09 06:54:22;;;;;;;3.90;1.47;;;;;;;;;;4912830;29;20213;-83
2022/06/09 06:56:53;;;;;;;3.10;1.47;;;;;;;;;;4867404;29;20200;-86
2022/06/09 06:59:25;;;;;;;5.77;2.07;;;;;;;;;;4896222;29;20195;-86
2022/06/09 07:01:53;;;;;;;3.40;1.43;;;;;;;;;;4872018;29;20296;-86
2022/06/09 07:04:27;;;;;;;2.10;1.37;;;;;;;;;;4891067;29;20203;-86
2022/06/09 07:06:56;;;;;;;3.10;1.87;;;;;;;;;;4906645;29;20322;-87
2022/06/09 07:09:25;;;;;;;2.10;1.70;;;;;;;;;;4907307;29;20225;-86
2022/06/09 07:11:54;;;;;;;2.00;1.10;;;;;;;;;;4875962;29;20254;-86
2022/06/09 07:14:22;;;;;;;2.70;2.13;;;;;;;;;;4878454;29;20219;-86
2022/06/09 07:16:51;;;;;;;3.33;2.20;;;;;;;;;;4893045;29;20276;-86
2022/06/09 07:19:20;;;;;;;3.53;1.80;;;;;;;;;;4905582;29;20236;-86
2022/06/09 07:21:50;;;;;;;3.07;1.53;;;;;;;;;;4879587;29;20260;-85
2022/06/09 07:24:18;;;;;;;0.93;0.93;;;;;;;;;;4905299;29;20212;-87
2022/06/09 07:26:47;;;;;;;4.07;1.10;;;;;;;;;;4880727;29;20283;-84
2022/06/09 07:29:17;;;;;;;2.90;1.80;;;;;;;;;;4877289;29;20551;-87
2022/06/09 07:31:46;;;;;;;4.63;1.97;;;;;;;;;;4873716;29;20298;-86
2022/06/09 07:34:14;;;;;;;3.80;1.23;;;;;;;;;;4880567;29;20212;-86
2022/06/09 07:36:43;;;;;;;2.40;1.10;;;;;;;;;;4881270;29;20287;-86
2022/06/09 07:39:14;;;;;;;11.70;3.53;;;;;;;;;;4889103;29;20218;-85
2022/06/09 07:41:43;;;;;;;7.23;2.30;;;;;;;;;;4897629;29;20215;-83
2022/06/09 07:44:15;;;;;;;1.73;1.07;;;;;;;;;;4885939;29;20318;-88
2022/06/09 07:46:51;;;;;;;4.33;1.40;;;;;;;;;;4903506;29;20311;-85
2022/06/09 07:49:23;;;;;;;4.03;2.17;;;;;;;;;;4903902;29;20215;-85
2022/06/09 07:51:53;;;;;;;2.03;1.17;;;;;;;;;;4887020;29;20298;-86
2022/06/09 07:54:23;;;;;;;11.73;1.53;;;;;;;;;;4890772;29;20242;-86
2022/06/09 07:56:52;;;;;;;0.97;0.97;;;;;;;;;;4896567;29;20212;-85
2022/06/09 07:59:20;;;;;;;6.50;1.27;;;;;;;;;;4880895;29;20201;-85
2022/06/09 08:01:49;;;;;;;0.87;0.87;;;;;;;;;;4902541;29;20216;-85
2022/06/09 08:04:17;;;;;;;2.40;1.67;;;;;;;;;;4880113;29;20238;-85
2022/06/09 08:06:46;;;;;;;5.60;1.47;;;;;;;;;;4879360;29;20245;-86
2022/06/09 08:09:15;;;;;;;0.90;0.90;;;;;;;;;;4881015;29;20215;-86
2022/06/09 08:11:49;;;;;;;6.13;1.53;;;;;;;;;;4905701;29;20239;-86
2022/06/09 08:14:18;;;;;;;3.30;1.03;;;;;;;;;;4905306;29;20326;-85
2022/06/09 08:16:52;;;;;;;2.07;1.37;;;;;;;;;;4906237;29;20303;-86
2022/06/09 08:19:21;;;;;;;0.83;0.83;;;;;;;;;;4876887;29;20232;-83
2022/06/09 08:21:54;;;;;;;5.23;2.17;;;;;;;;;;4880120;29;20211;-85
2022/06/09 08:24:23;;;;;;;1.30;1.20;;;;;;;;;;4890036;29;20215;-86
2022/06/09 08:26:53;;;;;;;6.50;2.40;;;;;;;;;;4876412;29;20228;-86
2022/06/09 08:29:27;;;;;;;7.13;1.90;;;;;;;;;;4870481;29;20215;-84
2022/06/09 08:31:55;;;;;;;1.50;1.30;;;;;;;;;;4872458;29;20231;-86
2022/06/09 08:34:25;;;;;;;3.33;1.70;;;;;;;;;;4871221;29;20215;-86
2022/06/09 08:36:54;;;;;;;5.87;2.13;;;;;;;;;;4893846;29;20330;-86
2022/06/09 08:39:22;;;;;;;5.97;1.93;;;;;;;;;;4905223;29;20208;-86
2022/06/09 08:42:00;;;;;;;5.07;1.53;;;;;;;;;;4893625;29;20222;-84
2022/06/09 08:44:31;;;;;;;2.30;1.47;;;;;;;;;;4871878;29;20333;-87
2022/06/09 08:47:04;;;;;;;0.53;0.53;;;;;;;;;;4890570;29;20223;-86
2022/06/09 08:49:35;;;;;;;1.30;1.20;;;;;;;;;;4901003;29;20264;-86
2022/06/09 08:52:05;;;;;;;0.80;0.80;;;;;;;;;;4890426;29;20279;-85
2022/06/09 08:54:35;;;;;;;4.03;1.17;;;;;;;;;;4877543;29;20208;-86
2022/06/09 08:57:10;;;;;;;4.63;1.40;;;;;;;;;;4886062;29;20214;-87
2022/06/09 08:59:39;;;;;;;3.43;1.40;;;;;;;;;;4885164;29;20226;-84
2022/06/09 09:02:24;;;;;;;5.13;3.43;;;;;;;;;;4896465;29;20219;-84
2022/06/09 09:05:01;;;;;;;1.43;1.23;;;;;;;;;;4900483;29;20275;-84
2022/06/09 09:07:32;;;;;;;1.80;1.70;;;;;;;;;;4905602;29;20263;-84
2022/06/09 09:10:02;;;;;;;1.83;1.70;;;;;;;;;;4877736;29;20217;-88
2022/06/09 09:12:36;;;;;;;2.37;1.50;;;;;;;;;;4901386;29;20332;-85
2022/06/09 09:15:10;;;;;;;3.47;1.17;;;;;;;;;;4883844;29;20199;-85
2022/06/09 09:17:40;;;;;;;3.23;1.20;;;;;;;;;;4900454;29;20216;-85
2022/06/09 09:20:16;;;;;;;5.17;1.97;;;;;;;;;;4903491;29;20232;-87
2022/06/09 09:22:48;;;;;;;6.67;2.00;;;;;;;;;;4906441;29;20217;-87
2022/06/09 09:25:21;;;;;;;1.67;1.57;;;;;;;;;;4904798;29;20215;-87
2022/06/09 09:27:55;;;;;;;8.60;2.73;;;;;;;;;;4890236;29;20237;-85
2022/06/09 09:30:24;;;;;;;2.77;1.80;;;;;;;;;;4905562;29;20216;-86
2022/06/09 09:32:54;;;;;;;2.73;1.73;;;;;;;;;;4888119;29;20203;-87
2022/06/09 09:35:25;;;;;;;4.10;1.67;;;;;;;;;;4895038;29;20262;-87
2022/06/09 09:37:54;;;;;;;2.33;1.90;;;;;;;;;;4887675;29;20203;-87
2022/06/09 09:40:29;;;;;;;3.83;2.50;;;;;;;;;;4894443;29;20276;-86
2022/06/09 09:43:00;;;;;;;1.27;1.17;;;;;;;;;;4893303;29;20214;-87
2022/06/09 09:45:33;;;;;;;6.70;3.40;;;;;;;;;;4892829;29;20211;-86
2022/06/09 09:48:03;;;;;;;5.60;2.77;;;;;;;;;;4881803;29;20220;-86
2022/06/09 09:50:35;;;;;;;2.00;1.53;;;;;;;;;;4879611;29;20213;-87
2022/06/09 09:53:05;;;;;;;4.27;2.00;;;;;;;;;;4876181;29;20208;-85
2022/06/09 09:55:39;;;;;;;6.57;2.57;;;;;;;;;;4906949;29;20218;-86
2022/06/09 09:58:21;;;;;;;11.93;2.53;;;;;;;;;;4888322;29;20196;-89
2022/06/09 10:00:51;;;;;;;2.87;1.60;;;;;;;;;;4870788;29;20283;-87
2022/06/09 10:09:11;;;;;;;2.37;1.10;;;;;;;;;;4904594;29;20208;-89
2022/06/09 10:11:58;;;;;;;0.77;0.77;;;;;;;;;;4887230;29;20239;-87
2022/06/09 10:14:52;;;;;;;11.80;2.83;;;;;;;;;;4916172;29;20269;-86
2022/06/09 10:17:43;;;;;;;2.77;1.70;;;;;;;;;;4900794;29;20207;-89
2022/06/09 10:20:41;;;;;;;15.07;2.90;;;;;;;;;;4910335;29;20301;-86
2022/06/09 10:23:22;;;;;;;5.53;2.43;;;;;;;;;;4893210;29;20223;-87
2022/06/09 10:25:53;;;;;;;7.93;5.80;;;;;;;;;;4913763;29;20215;-88
2022/06/09 10:28:27;;;;;;;4.60;2.93;;;;;;;;;;4887920;29;20290;-88
2022/06/09 10:31:03;;;;;;;2.63;2.07;;;;;;;;;;4919300;29;20216;-88
2022/06/09 10:33:36;;;;;;;8.20;3.10;;;;;;;;;;4921772;29;20220;-87
2022/06/09 10:36:12;;;;;;;8.07;2.47;;;;;;;;;;4921903;29;20216;-90
2022/06/09 10:38:44;;;;;;;5.97;3.10;;;;;;;;;;4913459;29;20216;-89
2022/06/09 10:41:14;;;;;;;2.57;1.60;;;;;;;;;;4909468;29;20293;-88
2022/06/09 10:43:46;;;;;;;4.63;2.27;;;;;;;;;;4913597;29;20318;-89
2022/06/09 10:46:20;;;;;;;4.27;2.57;;;;;;;;;;4922888;29;20212;-86
2022/06/09 10:57:28;;;;;;;6.30;2.00;;;;;;;;;;4923532;29;20213;-89
2022/06/09 10:59:59;;;;;;;8.20;1.93;;;;;;;;;;4894105;29;20219;-89
2022/06/09 11:02:30;;;;;;;6.03;1.50;;;;;;;;;;4925115;29;20234;-89
2022/06/09 11:04:59;;;;;;;6.83;2.97;;;;;;;;;;4908851;29;20219;-89
2022/06/09 11:07:40;;;;;;;1.57;1.30;;;;;;;;;;4910012;29;20247;-89
2022/06/09 11:10:27;;;;;;;5.77;2.17;;;;;;;;;;4911109;29;20230;-89
2022/06/09 11:13:04;;;;;;;1.53;1.10;;;;;;;;;;4905085;29;20242;-88
2022/06/09 11:15:36;;;;;;;6.93;2.50;;;;;;;;;;4904606;29;20218;-89
2022/06/09 11:18:13;;;;;;;7.23;3.10;;;;;;;;;;4906323;29;20235;-89
2022/06/09 11:20:49;;;;;;;3.33;1.47;;;;;;;;;;4904942;29;20240;-85
2022/06/09 11:23:29;;;;;;;3.30;2.00;;;;;;;;;;4906582;29;20278;-87
2022/06/09 11:26:07;;;;;;;18.83;1.67;;;;;;;;;;4890689;29;20214;-86
2022/06/09 11:28:41;;;;;;;6.20;2.43;;;;;;;;;;4891773;29;20257;-86
2022/06/09 11:31:54;;;;;;;1.80;1.23;;;;;;;;;;4901962;29;20209;-86
2022/06/09 11:34:44;;;;;;;1.67;1.57;;;;;;;;;;4853164;29;20279;-84
2022/06/09 11:37:22;;;;;;;5.00;1.73;;;;;;;;;;4865523;29;20265;-87
2022/06/09 11:39:57;;;;;;;3.33;1.57;;;;;;;;;;4893881;29;20222;-86
2022/06/09 11:42:34;;;;;;;3.30;1.27;;;;;;;;;;4870668;29;20282;-88
2022/06/09 11:45:36;;;;;;;;;;;;;;;;;;;;;
2022/06/09 11:48:50;;;;;;;5.67;1.90;;;;;;;;;;4899411;29;20302;-86
2022/06/09 11:51:19;;;;;;;1.53;1.33;;;;;;;;;;4874901;29;20212;-90
2022/06/09 11:53:50;;;;;;;8.60;2.80;;;;;;;;;;4875115;29;20217;-89
2022/06/09 11:56:39;;;;;;;9.87;2.93;;;;;;;;;;4890426;29;20223;-88
2022/06/09 11:59:21;;;;;;;5.30;1.97;;;;;;;;;;4902756;29;20216;-86
2022/06/09 12:02:07;;;;;;;3.90;2.40;;;;;;;;;;4908581;29;20250;-88
2022/06/09 12:04:43;;;;;;;3.87;2.40;;;;;;;;;;4894371;29;20313;-89
2022/06/09 12:07:18;;;;;;;9.63;1.80;;;;;;;;;;4878234;29;20211;-88
2022/06/09 12:09:53;;;;;;;2.83;1.73;;;;;;;;;;4898321;29;20275;-90
2022/06/09 12:12:40;;;;;;;9.37;2.40;;;;;;;;;;4892450;29;20305;-88
2022/06/09 12:15:20;;;;;;;1.60;1.50;;;;;;;;;;4901648;29;20210;-88
2022/06/09 12:18:07;;;;;;;2.87;1.90;;;;;;;;;;4893014;29;20203;-87
2022/06/09 12:20:40;;;;;;;11.23;1.90;;;;;;;;;;4905794;29;20226;-86
2022/06/09 12:23:30;;;;;;;3.60;2.17;;;;;;;;;;4904313;29;20216;-89
2022/06/09 12:26:16;;;;;;;5.37;2.83;;;;;;;;;;4887577;29;20222;-86
2022/06/09 12:29:02;;;;;;;8.57;3.93;;;;;;;;;;4890963;29;20232;-89
2022/06/09 12:31:34;;;;;;;6.67;2.17;;;;;;;;;;4905586;29;20213;-90
2022/06/09 12:34:05;;;;;;;8.60;2.70;;;;;;;;;;4873842;29;20211;-87
2022/06/09 12:36:38;;;;;;;7.87;3.67;;;;;;;;;;4891800;29;20263;-87
2022/06/09 12:39:15;;;;;;;6.30;2.77;;;;;;;;;;4889096;29;20279;-87
2022/06/09 12:41:45;;;;;;;12.77;4.00;;;;;;;;;;4888276;29;20245;-86
2022/06/09 12:44:45;;;;;;;7.57;2.37;;;;;;;;;;4904538;29;20318;-88
2022/06/09 12:47:37;;;;;;;1.23;1.07;;;;;;;;;;4885140;29;20210;-87
2022/06/09 12:50:20;;;;;;;5.60;2.70;;;;;;;;;;4904691;29;20228;-89
2022/06/09 12:52:49;;;;;;;5.40;2.23;;;;;;;;;;4878912;29;20211;-87
2022/06/09 12:55:34;;;;;;;4.50;1.73;;;;;;;;;;4888853;29;20213;-86
2022/06/09 12:58:10;;;;;;;3.67;3.23;;;;;;;;;;4888655;29;20256;-86
2022/06/09 13:00:46;;;;;;;2.23;1.57;;;;;;;;;;4889665;29;20232;-86
2022/06/09 13:03:23;;;;;;;7.57;2.37;;;;;;;;;;4874428;29;20216;-87
2022/06/09 13:05:56;;;;;;;21.73;2.93;;;;;;;;;;4892220;29;20290;-86
2022/06/09 13:08:33;;;;;;;1.67;1.50;;;;;;;;;;4909213;29;20222;-88
2022/06/09 13:11:03;;;;;;;1.47;1.43;;;;;;;;;;4894305;29;20229;-87
2022/06/09 13:13:53;;;;;;;3.77;1.70;;;;;;;;;;4922857;29;20202;-88
2022/06/09 13:16:23;;;;;;;3.20;1.57;;;;;;;;;;4896355;29;20263;-87
2022/06/09 13:19:04;;;;;;;13.50;3.23;;;;;;;;;;4907828;29;20215;-87
2022/06/09 13:21:36;;;;;;;2.90;1.43;;;;;;;;;;4908317;29;20224;-87
2022/06/09 13:24:08;;;;;;;1.73;1.57;;;;;;;;;;4907443;29;20242;-86
2022/06/09 13:26:44;;;;;;;10.93;1.93;;;;;;;;;;4906862;29;20295;-86
2022/06/09 13:29:22;;;;;;;2.97;1.10;;;;;;;;;;4925784;29;20215;-85
2022/06/09 13:31:54;;;;;;;3.77;1.80;;;;;;;;;;4909859;29;20229;-87
2022/06/09 13:34:27;;;;;;;6.63;2.93;;;;;;;;;;4928596;29;20211;-89
2022/06/09 13:37:02;;;;;;;5.90;2.60;;;;;;;;;;4923662;29;20208;-86
2022/06/09 13:39:46;;;;;;;9.37;4.10;;;;;;;;;;4927385;29;20221;-88
2022/06/09 13:42:18;;;;;;;5.23;2.57;;;;;;;;;;4925611;29;20205;-87
2022/06/09 13:44:53;;;;;;;7.93;2.30;;;;;;;;;;4923619;29;20232;-86
2022/06/09 13:47:23;;;;;;;2.67;1.20;;;;;;;;;;4924978;29;20217;-86
2022/06/09 13:50:03;;;;;;;16.97;3.03;;;;;;;;;;4913442;29;20229;-86
2022/06/09 13:52:36;;;;;;;3.10;1.40;;;;;;;;;;4927779;29;20209;-87
2022/06/09 13:55:05;;;;;;;4.60;2.07;;;;;;;;;;4922263;29;20227;-86
2022/06/09 13:57:43;;;;;;;5.17;2.17;;;;;;;;;;4913066;29;20254;-89
2022/06/09 14:00:18;;;;;;;3.60;1.53;;;;;;;;;;4913646;29;20212;-91
2022/06/09 14:02:48;;;;;;;3.47;1.03;;;;;;;;;;4930614;29;20289;-90
2022/06/09 14:05:18;;;;;;;3.43;1.03;;;;;;;;;;4914132;29;20233;-89
2022/06/09 14:07:47;;;;;;;5.03;2.93;;;;;;;;;;4913030;29;20217;-89
2022/06/09 14:10:20;;;;;;;8.47;2.73;;;;;;;;;;4919228;29;20233;-88
2022/06/09 14:12:49;;;;;;;6.93;2.00;;;;;;;;;;4910400;29;20260;-88
2022/06/09 14:15:18;;;;;;;2.87;2.03;;;;;;;;;;4881014;29;20210;-89
2022/06/09 14:17:49;;;;;;;4.33;2.10;;;;;;;;;;4893731;29;20221;-88
2022/06/09 14:20:20;;;;;;;2.57;1.73;;;;;;;;;;4906605;29;20196;-89
2022/06/09 14:22:48;;;;;;;7.43;2.90;;;;;;;;;;4873842;29;20272;-86
2022/06/09 14:25:17;;;;;;;4.63;1.20;;;;;;;;;;4909229;29;20207;-88
2022/06/09 14:27:46;;;;;;;2.77;1.37;;;;;;;;;;4895668;29;20207;-89
2022/06/09 14:30:15;;;;;;;2.30;1.30;;;;;;;;;;4891134;29;20234;-90
2022/06/09 14:32:44;;;;;;;3.80;1.00;;;;;;;;;;4876331;29;20217;-87
2022/06/09 14:35:16;;;;;;;5.93;1.93;;;;;;;;;;4889536;29;20209;-85
2022/06/09 14:37:47;;;;;;;6.70;2.10;;;;;;;;;;4875794;29;20210;-87
2022/06/09 14:40:21;;;;;;;5.50;2.47;;;;;;;;;;4902866;29;20203;-86
2022/06/09 14:42:50;;;;;;;3.17;1.40;;;;;;;;;;4876327;29;20241;-85
2022/06/09 14:45:19;;;;;;;1.90;1.17;;;;;;;;;;4890542;29;20222;-85
2022/06/09 14:47:47;;;;;;;6.80;2.37;;;;;;;;;;4874965;29;20226;-84
2022/06/09 14:50:17;;;;;;;6.40;1.87;;;;;;;;;;4881879;29;20243;-84
2022/06/09 14:52:46;;;;;;;3.47;1.33;;;;;;;;;;4878941;29;20208;-85
2022/06/09 14:55:16;;;;;;;2.40;1.47;;;;;;;;;;4899684;29;20236;-84
2022/06/09 14:57:44;;;;;;;8.50;1.93;;;;;;;;;;4906334;29;20205;-86
2022/06/09 15:00:17;;;;;;;1.90;1.63;;;;;;;;;;4894596;29;20271;-84
2022/06/09 15:02:48;;;;;;;3.80;1.90;;;;;;;;;;4878538;29;20212;-86
2022/06/09 15:05:19;;;;;;;6.00;2.20;;;;;;;;;;4895381;29;20212;-86
2022/06/09 15:07:50;;;;;;;4.23;2.17;;;;;;;;;;4880678;29;20213;-85
2022/06/09 15:10:21;;;;;;;5.80;2.03;;;;;;;;;;4891134;29;20223;-87
2022/06/09 15:12:50;;;;;;;4.70;2.43;;;;;;;;;;4909946;29;20254;-87
2022/06/09 15:15:22;;;;;;;5.37;2.43;;;;;;;;;;4895060;29;20216;-84
2022/06/09 15:17:52;;;;;;;2.83;1.60;;;;;;;;;;4877141;29;20210;-86
2022/06/09 15:20:23;;;;;;;8.63;2.20;;;;;;;;;;4892615;29;20233;-84
2022/06/09 15:22:53;;;;;;;6.20;1.50;;;;;;;;;;4905804;29;20203;-83
2022/06/09 15:25:21;;;;;;;3.20;1.37;;;;;;;;;;4893121;29;20203;-84
2022/06/09 15:27:52;;;;;;;5.80;1.43;;;;;;;;;;4901871;29;20212;-84
2022/06/09 15:30:23;;;;;;;9.50;2.20;;;;;;;;;;4905345;29;20308;-85
2022/06/09 15:32:52;;;;;;;10.60;2.30;;;;;;;;;;4881428;29;20222;-85
2022/06/09 15:35:21;;;;;;;2.40;1.60;;;;;;;;;;4908813;29;20253;-85